createdAt,value
2022-08-22T00:00:59.027Z,73.00
2022-08-22T00:02:43.110Z,68.80
2022-08-22T00:02:53.604Z,67.80
2022-08-22T00:02:55.262Z,70.70
2022-08-22T00:03:02.618Z,69.50
2022-08-22T00:03:19.104Z,72.80
2022-08-22T00:05:27.808Z,72.80
2022-08-22T00:07:35.726Z,72.70
2022-08-22T00:09:35.491Z,72.50
2022-08-22T00:11:39.957Z,72.50
2022-08-22T00:13:40.717Z,72.70
2022-08-22T00:15:43.312Z,73.00
2022-08-22T00:17:46.855Z,73.10
2022-08-22T00:19:51.193Z,73.10
2022-08-22T00:21:52.649Z,73.70
2022-08-22T00:23:50.458Z,73.50
2022-08-22T00:25:56.123Z,73.70
2022-08-22T00:27:53.704Z,74.00
2022-08-22T00:29:50.740Z,74.00
2022-08-22T00:31:50.361Z,73.80
2022-08-22T00:33:50.860Z,73.60
2022-08-22T00:35:47.648Z,73.40
2022-08-22T00:37:44.764Z,73.90
2022-08-22T00:39:44.333Z,73.60
2022-08-22T00:42:12.408Z,73.80
2022-08-22T00:44:37.528Z,74.10
2022-08-22T00:47:00.580Z,73.70
2022-08-22T00:49:33.873Z,73.90
2022-08-22T00:52:03.387Z,73.90
2022-08-22T00:54:02.789Z,74.20
2022-08-22T00:56:19.171Z,73.70
2022-08-22T00:58:58.060Z,73.50
2022-08-22T01:00:55.240Z,73.40
2022-08-22T01:03:23.688Z,73.80
2022-08-22T01:05:41.252Z,73.90
2022-08-22T01:07:59.570Z,74.50
2022-08-22T01:10:10.647Z,74.20
2022-08-22T01:12:45.895Z,74.30
2022-08-22T01:14:54.422Z,74.30
2022-08-22T01:17:17.487Z,74.40
2022-08-22T01:19:49.673Z,74.40
2022-08-22T01:22:28.203Z,74.60
2022-08-22T01:25:26.028Z,74.40
2022-08-22T01:28:05.219Z,74.70
2022-08-22T01:30:33.722Z,74.70
2022-08-22T01:34:03.916Z,74.60
2022-08-22T01:36:26.718Z,74.80
2022-08-22T01:38:41.534Z,75.00
2022-08-22T01:41:21.346Z,75.20
2022-08-22T01:43:21.405Z,74.70
2022-08-22T01:46:14.862Z,75.10
2022-08-22T01:48:19.720Z,75.20
2022-08-22T01:50:23.114Z,75.50
2022-08-22T01:52:19.755Z,75.10
2022-08-22T01:54:34.349Z,74.90
2022-08-22T01:56:31.635Z,74.80
2022-08-22T01:58:26.710Z,75.20
2022-08-22T02:00:20.789Z,75.70
2022-08-22T02:02:59.209Z,75.40
2022-08-22T02:05:01.329Z,75.30
2022-08-22T02:07:03.509Z,75.10
2022-08-22T02:09:06.720Z,75.40
2022-08-22T02:11:04.069Z,75.20
2022-08-22T02:13:06.122Z,75.10
2022-08-22T02:15:15.566Z,75.10
2022-08-22T02:17:19.006Z,75.10
2022-08-22T02:19:25.982Z,75.00
2022-08-22T02:21:24.100Z,75.00
2022-08-22T02:23:24.730Z,75.10
2022-08-22T02:25:23.305Z,75.00
2022-08-22T02:27:35.046Z,75.00
2022-08-22T02:29:35.714Z,75.20
2022-08-22T02:31:39.708Z,75.20
2022-08-22T02:33:38.377Z,75.10
2022-08-22T02:35:36.958Z,75.20
2022-08-22T02:37:37.769Z,75.30
2022-08-22T02:39:36.402Z,75.70
2022-08-22T02:41:35.785Z,75.80
2022-08-22T02:43:38.282Z,75.70
2022-08-22T02:45:37.485Z,75.90
2022-08-22T02:47:38.866Z,75.90
2022-08-22T02:49:43.902Z,75.90
2022-08-22T02:51:44.416Z,75.90
2022-08-22T02:53:48.034Z,76.20
2022-08-22T02:55:54.024Z,76.10
2022-08-22T02:58:00.820Z,76.10
2022-08-22T03:00:31.123Z,76.10
2022-08-22T03:02:34.226Z,76.40
2022-08-22T03:04:46.882Z,76.40
2022-08-22T03:06:42.459Z,76.40
2022-08-22T03:08:37.916Z,76.30
2022-08-22T03:10:47.538Z,76.30
2022-08-22T03:12:48.539Z,76.20
2022-08-22T03:14:47.697Z,76.30
2022-08-22T03:16:47.783Z,76.20
2022-08-22T03:18:48.461Z,76.60
2022-08-22T03:20:46.833Z,76.60
2022-08-22T03:22:46.214Z,76.20
2022-08-22T03:24:47.160Z,76.20
2022-08-22T03:26:49.170Z,75.90
2022-08-22T03:28:54.396Z,75.80
2022-08-22T03:31:07.120Z,75.90
2022-08-22T03:33:14.855Z,76.00
2022-08-22T03:35:11.926Z,76.10
2022-08-22T03:37:15.581Z,76.10
2022-08-22T03:39:16.544Z,76.30
2022-08-22T03:41:35.645Z,76.20
2022-08-22T03:44:00.732Z,76.30
2022-08-22T03:46:55.364Z,76.40
2022-08-22T03:49:33.565Z,76.80
2022-08-22T03:51:46.739Z,76.80
2022-08-22T03:54:33.124Z,76.90
2022-08-22T03:57:19.094Z,76.60
2022-08-22T04:00:03.718Z,76.70
2022-08-22T04:02:48.004Z,77.00
2022-08-22T04:05:24.547Z,77.20
2022-08-22T04:07:48.581Z,77.10
2022-08-22T04:10:02.966Z,77.40
2022-08-22T04:12:53.174Z,77.60
2022-08-22T04:15:26.803Z,77.20
2022-08-22T04:17:48.846Z,77.30
2022-08-22T04:20:27.179Z,77.20
2022-08-22T04:22:40.236Z,77.30
2022-08-22T04:24:53.680Z,77.20
2022-08-22T04:26:52.551Z,77.20
2022-08-22T04:28:49.977Z,77.20
2022-08-22T04:30:48.842Z,77.20
2022-08-22T04:32:45.419Z,77.00
2022-08-22T04:34:41.541Z,77.10
2022-08-22T04:36:40.657Z,77.30
2022-08-22T04:38:38.076Z,77.40
2022-08-22T04:40:36.055Z,77.70
2022-08-22T04:42:34.483Z,77.90
2022-08-22T04:44:35.875Z,77.80
2022-08-22T04:46:49.465Z,77.60
2022-08-22T04:48:47.737Z,77.80
2022-08-22T04:50:45.651Z,77.70
2022-08-22T04:52:53.217Z,77.60
2022-08-22T04:55:03.135Z,77.40
2022-08-22T04:57:25.553Z,77.70
2022-08-22T04:59:19.112Z,77.70
2022-08-22T05:01:16.164Z,77.80
2022-08-22T05:03:14.738Z,78.10
2022-08-22T05:05:13.836Z,78.30
2022-08-22T05:07:12.045Z,78.50
2022-08-22T05:09:11.807Z,78.20
2022-08-22T05:11:06.965Z,78.30
2022-08-22T05:13:02.864Z,78.30
2022-08-22T05:14:59.408Z,78.50
2022-08-22T05:16:56.164Z,78.30
2022-08-22T05:18:52.659Z,78.30
2022-08-22T05:20:47.754Z,78.30
2022-08-22T05:22:46.839Z,78.30
2022-08-22T05:24:42.317Z,78.40
2022-08-22T05:26:41.708Z,78.20
2022-08-22T05:28:37.819Z,78.00
2022-08-22T05:30:30.978Z,78.30
2022-08-22T05:32:27.446Z,78.60
2022-08-22T05:34:24.720Z,78.80
2022-08-22T05:36:21.963Z,78.70
2022-08-22T05:38:17.982Z,78.70
2022-08-22T05:40:18.885Z,78.60
2022-08-22T05:42:18.300Z,78.50
2022-08-22T05:44:19.704Z,78.80
2022-08-22T05:46:22.593Z,79.10
2022-08-22T05:48:22.024Z,79.40
2022-08-22T05:50:20.491Z,79.50
2022-08-22T05:52:40.126Z,79.90
2022-08-22T05:54:34.337Z,80.00
2022-08-22T05:56:38.181Z,79.90
2022-08-22T05:58:50.711Z,79.60
2022-08-22T06:00:46.047Z,79.20
2022-08-22T06:02:52.726Z,79.00
2022-08-22T06:04:52.599Z,78.80
2022-08-22T06:06:54.586Z,78.70
2022-08-22T06:08:55.551Z,78.70
2022-08-22T06:10:50.176Z,78.90
2022-08-22T06:12:49.883Z,78.50
2022-08-22T06:14:48.272Z,78.60
2022-08-22T06:16:48.738Z,78.60
2022-08-22T06:18:42.832Z,78.50
2022-08-22T06:20:51.487Z,77.80
2022-08-22T06:22:57.318Z,77.40
2022-08-22T06:24:50.868Z,77.30
2022-08-22T06:26:48.810Z,77.10
2022-08-22T06:28:54.486Z,77.00
2022-08-22T06:30:51.874Z,76.80
2022-08-22T06:32:59.951Z,76.90
2022-08-22T06:34:56.807Z,76.60
2022-08-22T06:36:51.249Z,76.50
2022-08-22T06:39:02.735Z,76.60
2022-08-22T06:40:54.953Z,76.50
2022-08-22T06:42:49.785Z,76.90
2022-08-22T06:44:51.826Z,77.10
2022-08-22T06:46:46.260Z,76.90
2022-08-22T06:48:37.653Z,76.60
2022-08-22T06:50:33.280Z,76.60
2022-08-22T06:52:28.275Z,76.50
2022-08-22T06:54:25.989Z,76.40
2022-08-22T06:56:23.520Z,76.10
2022-08-22T06:58:17.993Z,76.00
2022-08-22T07:00:14.868Z,75.80
2022-08-22T07:02:16.104Z,75.80
2022-08-22T07:04:09.969Z,75.80
2022-08-22T07:06:03.413Z,75.70
2022-08-22T07:07:57.353Z,75.90
2022-08-22T07:09:52.774Z,76.20
2022-08-22T07:11:44.003Z,76.00
2022-08-22T07:13:38.001Z,76.00
2022-08-22T07:15:34.388Z,75.60
2022-08-22T07:17:28.711Z,75.70
2022-08-22T07:19:25.938Z,75.70
2022-08-22T07:21:26.549Z,75.50
2022-08-22T07:23:30.693Z,75.50
2022-08-22T07:25:24.538Z,75.30
2022-08-22T07:27:31.090Z,75.00
2022-08-22T07:29:38.031Z,75.00
2022-08-22T07:31:36.659Z,75.10
2022-08-22T07:33:41.258Z,75.40
2022-08-22T07:35:41.020Z,75.20
2022-08-22T07:37:56.901Z,74.80
2022-08-22T07:39:55.710Z,74.30
2022-08-22T07:42:14.293Z,74.30
2022-08-22T07:44:19.802Z,73.90
2022-08-22T07:46:25.793Z,73.80
2022-08-22T07:48:26.754Z,73.70
2022-08-22T07:50:24.229Z,74.10
2022-08-22T07:52:16.869Z,73.90
2022-08-22T07:54:09.541Z,73.80
2022-08-22T07:56:02.835Z,73.50
2022-08-22T07:58:01.343Z,73.40
2022-08-22T07:59:59.170Z,72.90
2022-08-22T08:01:54.215Z,72.80
2022-08-22T08:03:53.594Z,72.80
2022-08-22T08:05:45.593Z,72.70
2022-08-22T08:07:43.529Z,72.00
2022-08-22T08:09:46.910Z,72.00
2022-08-22T08:11:43.022Z,72.00
2022-08-22T08:13:41.153Z,72.30
2022-08-22T08:15:37.335Z,72.20
2022-08-22T08:17:32.525Z,72.00
2022-08-22T08:19:24.017Z,72.00
2022-08-22T08:21:27.570Z,72.00
2022-08-22T08:23:46.391Z,71.60
2022-08-22T08:25:59.826Z,71.30
2022-08-22T08:27:51.633Z,72.10
2022-08-22T08:29:53.621Z,71.90
2022-08-22T08:31:45.167Z,71.00
2022-08-22T08:33:45.222Z,71.40
2022-08-22T08:36:01.942Z,71.20
2022-08-22T08:37:59.964Z,71.00
2022-08-22T08:39:56.775Z,70.10
2022-08-22T08:42:45.630Z,70.50
2022-08-22T08:45:04.673Z,70.20
2022-08-22T08:47:27.391Z,69.50
2022-08-22T08:50:09.565Z,69.30
2022-08-22T08:52:25.827Z,69.00
2022-08-22T08:54:57.383Z,68.70
2022-08-22T08:56:59.244Z,68.30
2022-08-22T08:59:03.189Z,68.30
2022-08-22T09:01:30.109Z,68.90
2022-08-22T09:03:59.540Z,68.00
2022-08-22T09:06:14.392Z,68.10
2022-08-22T09:08:33.892Z,68.10
2022-08-22T09:11:02.272Z,68.30
2022-08-22T09:16:15.798Z,65.20
2022-08-22T09:18:58.076Z,65.50
2022-08-22T09:21:30.705Z,64.50
2022-08-22T09:23:59.269Z,63.90
2022-08-22T09:25:54.603Z,63.90
2022-08-22T09:27:55.295Z,63.30
2022-08-22T09:29:55.484Z,61.40
2022-08-22T09:32:13.165Z,63.60
2022-08-22T09:34:13.245Z,62.90
2022-08-22T09:36:20.898Z,61.30
2022-08-22T09:38:38.732Z,61.20
2022-08-22T09:40:16.263Z,66.70
2022-08-22T09:40:39.370Z,62.70
2022-08-22T09:42:39.622Z,61.80
2022-08-22T09:44:46.556Z,62.50
2022-08-22T09:47:03.572Z,62.40
2022-08-22T09:49:06.683Z,61.50
2022-08-22T09:51:31.533Z,61.80
2022-08-22T09:53:44.192Z,61.90
2022-08-22T09:55:44.693Z,60.40
2022-08-22T09:57:41.740Z,60.10
2022-08-22T10:00:00.772Z,59.70
2022-08-22T10:01:59.356Z,59.40
2022-08-22T10:04:42.440Z,59.80
2022-08-22T10:06:51.708Z,60.10
2022-08-22T10:08:48.004Z,59.50
2022-08-22T10:11:03.205Z,59.60
2022-08-22T10:13:10.524Z,59.30
2022-08-22T10:15:16.697Z,60.00
2022-08-22T10:17:21.861Z,59.10
2022-08-22T10:19:22.714Z,58.90
2022-08-22T10:21:26.720Z,58.40
2022-08-22T10:23:24.072Z,57.80
2022-08-22T10:25:42.478Z,57.90
2022-08-22T10:27:50.485Z,57.50
2022-08-22T10:30:02.591Z,58.50
2022-08-22T10:32:01.344Z,56.80
2022-08-22T10:34:05.768Z,57.90
2022-08-22T10:36:06.226Z,57.90
2022-08-22T10:38:03.365Z,57.30
2022-08-22T10:40:03.640Z,57.70
2022-08-22T10:42:23.316Z,58.10
2022-08-22T10:44:19.505Z,57.80
2022-08-22T10:46:18.790Z,56.90
2022-08-22T10:48:45.323Z,57.40
2022-08-22T10:50:43.005Z,56.80
2022-08-22T10:52:45.443Z,56.70
2022-08-22T10:54:47.786Z,57.00
2022-08-22T10:56:48.675Z,57.30
2022-08-22T10:58:49.051Z,56.90
2022-08-22T11:00:50.618Z,57.20
2022-08-22T11:02:54.058Z,56.70
2022-08-22T11:05:17.375Z,56.20
2022-08-22T11:07:37.220Z,56.80
2022-08-22T11:09:39.204Z,56.10
2022-08-22T11:11:45.366Z,56.50
2022-08-22T11:13:46.961Z,57.70
2022-08-22T11:16:00.249Z,57.40
2022-08-22T11:18:19.703Z,57.70
2022-08-22T11:20:19.818Z,57.00
2022-08-22T11:22:29.785Z,56.70
2022-08-22T11:25:12.131Z,55.60
2022-08-22T11:27:14.626Z,56.90
2022-08-22T11:29:31.864Z,55.50
2022-08-22T11:31:47.222Z,54.80
2022-08-22T11:33:51.261Z,53.90
2022-08-22T11:35:50.517Z,55.00
2022-08-22T11:37:54.930Z,53.90
2022-08-22T11:40:04.188Z,52.60
2022-08-22T11:42:05.184Z,52.00
2022-08-22T11:44:07.033Z,51.40
2022-08-22T11:46:20.042Z,52.10
2022-08-22T11:48:21.607Z,52.50
2022-08-22T11:50:23.632Z,53.30
2022-08-22T11:52:29.161Z,53.00
2022-08-22T11:54:31.070Z,53.40
2022-08-22T11:56:31.187Z,51.70
2022-08-22T11:58:38.047Z,54.60
2022-08-22T12:00:37.995Z,53.00
2022-08-22T12:02:47.552Z,56.30
2022-08-22T12:04:42.648Z,52.40
2022-08-22T12:06:58.645Z,52.50
2022-08-22T12:09:31.460Z,52.10
2022-08-22T12:11:32.318Z,53.30
2022-08-22T12:13:49.755Z,51.90
2022-08-22T12:15:53.868Z,51.50
2022-08-22T12:18:43.808Z,51.40
2022-08-22T12:20:59.615Z,51.80
2022-08-22T12:23:43.148Z,51.40
2022-08-22T12:26:10.724Z,50.70
2022-08-22T12:28:21.401Z,51.90
2022-08-22T12:30:21.358Z,51.40
2022-08-22T12:33:31.191Z,51.40
2022-08-22T12:35:40.774Z,52.20
2022-08-22T12:37:52.837Z,52.10
2022-08-22T12:40:10.156Z,50.30
2022-08-22T12:42:39.652Z,51.20
2022-08-22T12:44:45.469Z,50.30
2022-08-22T12:46:51.604Z,48.70
2022-08-22T12:49:00.040Z,49.80
2022-08-22T12:50:56.951Z,47.70
2022-08-22T12:53:26.864Z,50.30
2022-08-22T12:55:36.052Z,49.70
2022-08-22T12:57:41.624Z,49.20
2022-08-22T12:59:39.688Z,49.60
2022-08-22T13:01:35.547Z,48.70
2022-08-22T13:03:31.889Z,49.10
2022-08-22T13:05:28.992Z,49.00
2022-08-22T13:07:31.506Z,49.00
2022-08-22T13:09:29.060Z,48.60
2022-08-22T13:11:23.685Z,47.10
2022-08-22T13:13:31.512Z,48.10
2022-08-22T13:15:29.701Z,48.80
2022-08-22T13:17:24.930Z,48.00
2022-08-22T13:19:21.374Z,48.80
2022-08-22T13:21:17.222Z,48.20
2022-08-22T13:23:17.740Z,47.00
2022-08-22T13:25:25.903Z,47.30
2022-08-22T13:27:24.753Z,47.20
2022-08-22T13:29:26.949Z,47.00
2022-08-22T13:31:25.501Z,45.40
2022-08-22T13:33:25.987Z,46.00
2022-08-22T13:35:24.631Z,45.90
2022-08-22T13:37:24.843Z,46.40
2022-08-22T13:39:26.869Z,45.50
2022-08-22T13:41:23.711Z,46.80
2022-08-22T13:43:20.984Z,46.50
2022-08-22T13:45:21.347Z,45.70
2022-08-22T13:47:17.970Z,45.20
2022-08-22T13:49:16.840Z,45.90
2022-08-22T13:51:16.187Z,44.80
2022-08-22T13:53:26.806Z,44.20
2022-08-22T13:55:27.637Z,45.80
2022-08-22T13:57:27.761Z,45.20
2022-08-22T13:59:50.978Z,44.90
2022-08-22T14:01:50.224Z,45.60
2022-08-22T14:03:48.579Z,46.60
2022-08-22T14:05:46.341Z,45.80
2022-08-22T14:07:53.428Z,44.50
2022-08-22T14:09:55.304Z,44.90
2022-08-22T14:11:51.035Z,45.60
2022-08-22T14:13:47.223Z,45.60
2022-08-22T14:15:45.784Z,46.70
2022-08-22T14:17:43.157Z,46.80
2022-08-22T14:19:41.055Z,46.80
2022-08-22T14:21:53.501Z,48.00
2022-08-22T14:23:52.403Z,47.80
2022-08-22T14:25:45.476Z,47.20
2022-08-22T14:27:55.902Z,46.20
2022-08-22T14:29:54.869Z,45.80
2022-08-22T14:32:01.720Z,46.80
2022-08-22T14:33:57.307Z,47.10
2022-08-22T14:35:54.233Z,48.80
2022-08-22T14:37:50.239Z,46.80
2022-08-22T14:39:48.339Z,46.40
2022-08-22T14:41:55.466Z,46.20
2022-08-22T14:43:55.692Z,46.80
2022-08-22T14:45:56.533Z,47.60
2022-08-22T14:48:09.945Z,46.70
2022-08-22T14:50:29.278Z,46.40
2022-08-22T14:52:35.465Z,47.20
2022-08-22T14:54:30.387Z,47.10
2022-08-22T14:56:26.501Z,46.30
2022-08-22T14:58:26.521Z,46.90
2022-08-22T15:00:30.549Z,47.20
2022-08-22T15:02:26.330Z,47.00
2022-08-22T15:04:27.910Z,47.20
2022-08-22T15:06:33.173Z,47.40
2022-08-22T15:08:30.127Z,47.10
2022-08-22T15:10:26.847Z,47.30
2022-08-22T15:12:28.386Z,46.80
2022-08-22T15:14:28.100Z,47.10
2022-08-22T15:16:29.078Z,45.80
2022-08-22T15:18:33.979Z,46.20
2022-08-22T15:20:34.122Z,46.00
2022-08-22T15:22:28.738Z,45.60
2022-08-22T15:24:20.584Z,46.40
2022-08-22T15:26:23.143Z,44.30
2022-08-22T15:28:20.387Z,44.30
2022-08-22T15:30:20.362Z,44.10
2022-08-22T15:32:12.033Z,44.40
2022-08-22T15:34:12.460Z,44.10
2022-08-22T15:36:15.927Z,44.10
2022-08-22T15:38:24.032Z,43.40
2022-08-22T15:40:40.448Z,44.50
2022-08-22T15:42:36.229Z,44.70
2022-08-22T15:44:33.230Z,43.50
2022-08-22T15:46:33.459Z,43.40
2022-08-22T15:48:30.994Z,43.70
2022-08-22T15:50:32.772Z,43.30
2022-08-22T15:52:28.846Z,43.00
2022-08-22T15:54:25.273Z,42.60
2022-08-22T15:56:27.223Z,42.30
2022-08-22T15:58:23.561Z,43.30
2022-08-22T16:00:28.269Z,43.50
2022-08-22T16:02:33.278Z,43.30
2022-08-22T16:04:43.238Z,43.90
2022-08-22T16:06:44.305Z,44.00
2022-08-22T16:08:49.101Z,43.40
2022-08-22T16:10:45.737Z,43.70
2022-08-22T16:12:40.670Z,44.00
2022-08-22T16:14:49.192Z,44.10
2022-08-22T16:17:03.231Z,44.70
2022-08-22T16:19:19.729Z,45.20
2022-08-22T16:21:11.875Z,45.10
2022-08-22T16:23:07.082Z,44.50
2022-08-22T16:25:10.702Z,45.00
2022-08-22T16:27:20.194Z,44.80
2022-08-22T16:29:35.863Z,45.10
2022-08-22T16:31:37.174Z,45.30
2022-08-22T16:33:30.921Z,45.50
2022-08-22T16:36:21.699Z,45.90
2022-08-22T16:38:24.753Z,45.70
2022-08-22T16:40:23.516Z,45.80
2022-08-22T16:42:35.547Z,45.30
2022-08-22T16:44:43.230Z,45.10
2022-08-22T16:46:39.834Z,44.70
2022-08-22T16:48:37.045Z,45.20
2022-08-22T16:50:38.524Z,45.10
2022-08-22T16:53:03.029Z,44.80
2022-08-22T16:54:58.324Z,45.30
2022-08-22T16:57:08.716Z,45.30
2022-08-22T16:59:29.493Z,45.60
2022-08-22T17:01:51.759Z,45.80
2022-08-22T17:03:57.530Z,45.70
2022-08-22T17:06:03.849Z,46.20
2022-08-22T17:08:13.032Z,45.60
2022-08-22T17:10:41.045Z,45.70
2022-08-22T17:13:03.204Z,44.70
2022-08-22T17:15:06.733Z,45.00
2022-08-22T17:17:24.575Z,45.30
2022-08-22T17:19:39.653Z,45.30
2022-08-22T17:21:50.657Z,44.10
2022-08-22T17:23:53.663Z,44.70
2022-08-22T17:25:59.924Z,44.50
2022-08-22T17:28:06.057Z,43.90
2022-08-22T17:30:07.539Z,43.70
2022-08-22T17:32:15.130Z,44.30
2022-08-22T17:34:32.840Z,43.60
2022-08-22T17:36:34.178Z,44.30
2022-08-22T17:38:45.425Z,44.20
2022-08-22T17:40:50.899Z,43.70
2022-08-22T17:43:02.578Z,44.80
2022-08-22T17:45:02.552Z,44.10
2022-08-22T17:47:00.741Z,43.60
2022-08-22T17:48:59.337Z,43.60
2022-08-22T17:50:54.953Z,43.70
2022-08-22T17:52:51.214Z,44.80
2022-08-22T17:54:55.658Z,45.70
2022-08-22T17:57:00.460Z,46.10
2022-08-22T17:59:07.154Z,46.70
2022-08-22T18:01:07.847Z,46.90
2022-08-22T18:03:07.802Z,47.20
2022-08-22T18:05:07.392Z,47.60
2022-08-22T18:07:21.484Z,47.70
2022-08-22T18:09:28.363Z,48.40
2022-08-22T18:11:25.115Z,48.50
2022-08-22T18:13:37.127Z,48.80
2022-08-22T18:15:41.002Z,49.10
2022-08-22T18:17:35.477Z,50.30
2022-08-22T18:19:44.067Z,50.50
2022-08-22T18:21:41.842Z,50.40
2022-08-22T18:23:40.185Z,50.40
2022-08-22T18:25:41.462Z,50.10
2022-08-22T18:27:38.007Z,50.90
2022-08-22T18:29:43.099Z,51.00
2022-08-22T18:31:47.697Z,51.50
2022-08-22T18:33:45.367Z,51.40
2022-08-22T18:35:49.957Z,51.80
2022-08-22T18:37:57.643Z,52.40
2022-08-22T18:39:54.923Z,52.50
2022-08-22T18:41:50.652Z,52.50
2022-08-22T18:43:46.433Z,52.90
2022-08-22T18:46:03.848Z,53.50
2022-08-22T18:47:57.461Z,54.40
2022-08-22T18:49:51.757Z,53.90
2022-08-22T18:51:43.989Z,54.10
2022-08-22T18:53:37.767Z,54.10
2022-08-22T18:55:49.821Z,54.00
2022-08-22T18:58:08.672Z,54.70
2022-08-22T19:00:07.754Z,55.30
2022-08-22T19:02:17.057Z,54.40
2022-08-22T19:04:41.226Z,54.60
2022-08-22T19:07:14.660Z,54.90
2022-08-22T19:09:52.138Z,55.10
2022-08-22T19:11:59.012Z,55.10
2022-08-22T19:14:18.260Z,55.10
2022-08-22T19:16:36.820Z,55.30
2022-08-22T19:18:40.655Z,55.40
2022-08-22T19:20:37.164Z,55.70
2022-08-22T19:22:30.457Z,55.40
2022-08-22T19:25:02.190Z,55.60
2022-08-22T19:27:30.873Z,55.70
2022-08-22T19:29:56.630Z,55.30
2022-08-22T19:31:50.466Z,55.40
2022-08-22T19:33:47.031Z,56.10
2022-08-22T19:35:46.371Z,56.50
2022-08-22T19:37:52.919Z,56.50
2022-08-22T19:39:56.552Z,56.60
2022-08-22T19:41:51.633Z,56.90
2022-08-22T19:43:44.199Z,57.00
2022-08-22T19:45:49.462Z,56.70
2022-08-22T19:47:45.800Z,56.60
2022-08-22T19:49:45.038Z,56.90
2022-08-22T19:51:36.091Z,57.20
2022-08-22T19:53:41.867Z,57.00
2022-08-22T19:55:53.871Z,57.10
2022-08-22T19:57:56.544Z,57.60
2022-08-22T20:00:01.406Z,58.50
2022-08-22T20:02:07.035Z,58.90
2022-08-22T20:04:05.394Z,58.40
2022-08-22T20:06:13.760Z,58.30
2022-08-22T20:08:43.356Z,59.30
2022-08-22T20:10:48.485Z,59.20
2022-08-22T20:12:55.992Z,59.00
2022-08-22T20:14:49.279Z,59.20
2022-08-22T20:17:09.938Z,59.20
2022-08-22T20:19:19.854Z,59.40
2022-08-22T20:21:10.821Z,59.80
2022-08-22T20:23:12.573Z,59.50
2022-08-22T20:25:17.132Z,59.90
2022-08-22T20:27:31.939Z,60.10
2022-08-22T20:29:28.371Z,60.60
2022-08-22T20:31:24.226Z,60.60
2022-08-22T20:33:28.782Z,60.70
2022-08-22T20:35:25.665Z,60.80
2022-08-22T20:37:40.402Z,60.60
2022-08-22T20:39:50.108Z,61.00
2022-08-22T20:42:00.088Z,61.10
2022-08-22T20:43:54.244Z,61.40
2022-08-22T20:46:00.582Z,61.40
2022-08-22T20:47:56.150Z,61.60
2022-08-22T20:49:53.510Z,61.90
2022-08-22T20:51:54.934Z,62.00
2022-08-22T20:53:53.999Z,62.30
2022-08-22T20:56:00.520Z,62.20
2022-08-22T20:57:56.160Z,62.40
2022-08-22T20:59:53.652Z,62.60
2022-08-22T21:01:45.314Z,62.80
2022-08-22T21:03:44.556Z,63.10
2022-08-22T21:05:42.262Z,63.40
2022-08-22T21:07:36.889Z,63.60
2022-08-22T21:09:29.093Z,64.00
2022-08-22T21:11:24.355Z,64.40
2022-08-22T21:13:19.622Z,64.70
2022-08-22T21:15:10.438Z,65.20
2022-08-22T21:17:20.228Z,65.30
2022-08-22T21:19:23.819Z,65.70
2022-08-22T21:21:20.585Z,65.70
2022-08-22T21:23:14.913Z,65.90
2022-08-22T21:25:08.078Z,65.80
2022-08-22T21:27:03.591Z,65.60
2022-08-22T21:29:02.553Z,65.60
2022-08-22T21:30:57.748Z,65.70
2022-08-22T21:32:55.168Z,65.70
2022-08-22T21:34:49.944Z,66.00
2022-08-22T21:36:41.361Z,66.00
2022-08-22T21:38:32.090Z,66.00
2022-08-22T21:40:30.667Z,65.90
2022-08-22T21:42:25.656Z,66.20
2022-08-22T21:44:28.529Z,66.40
2022-08-22T21:46:27.541Z,67.00
2022-08-22T21:48:39.231Z,66.80
2022-08-22T21:50:33.951Z,67.20
2022-08-22T21:52:28.889Z,67.60
2022-08-22T21:54:39.233Z,67.60
2022-08-22T21:56:30.126Z,67.10
2022-08-22T21:58:35.572Z,66.90
2022-08-22T22:00:51.344Z,66.30
2022-08-22T22:02:43.773Z,65.70
2022-08-22T22:04:34.465Z,65.10
2022-08-22T22:06:27.805Z,65.30
2022-08-22T22:08:18.896Z,65.00
2022-08-22T22:10:14.513Z,64.70
2022-08-22T22:12:05.991Z,64.90
2022-08-22T22:13:56.550Z,65.30
2022-08-22T22:15:52.676Z,64.30
2022-08-22T22:17:43.395Z,64.50
2022-08-22T22:19:34.716Z,64.70
2022-08-22T22:21:27.483Z,64.70
2022-08-22T22:23:18.491Z,64.70
2022-08-22T22:25:41.226Z,64.90
2022-08-22T22:27:22.708Z,64.80
2022-08-22T22:29:17.091Z,64.50
2022-08-22T22:31:13.049Z,64.70
2022-08-22T22:33:04.420Z,64.50
2022-08-22T22:34:55.287Z,64.20
2022-08-22T22:36:47.659Z,64.10
2022-08-22T22:38:40.277Z,64.30
2022-08-22T22:40:32.108Z,64.60
2022-08-22T22:42:24.857Z,65.10
2022-08-22T22:44:15.567Z,65.30
2022-08-22T22:46:06.682Z,65.00
2022-08-22T22:47:59.211Z,65.00
2022-08-22T22:49:57.607Z,64.60
2022-08-22T22:51:53.092Z,64.40
2022-08-22T22:53:43.864Z,64.60
2022-08-22T22:55:35.474Z,64.60
2022-08-22T22:57:29.090Z,64.60
2022-08-22T22:59:20.372Z,64.70
2022-08-22T23:01:20.655Z,65.20
2022-08-22T23:03:11.777Z,65.50
2022-08-22T23:05:07.645Z,65.90
2022-08-22T23:07:04.865Z,65.80
2022-08-22T23:08:57.434Z,65.50
2022-08-22T23:10:50.803Z,66.10
2022-08-22T23:12:41.834Z,66.10
2022-08-22T23:14:33.523Z,66.40
2022-08-22T23:16:31.147Z,66.30
2022-08-22T23:18:30.290Z,66.60
2022-08-22T23:20:21.814Z,66.70
2022-08-22T23:22:14.647Z,67.10
2022-08-22T23:24:06.183Z,67.60
2022-08-22T23:25:57.649Z,67.60
2022-08-22T23:27:52.541Z,67.70
2022-08-22T23:29:45.096Z,68.20
2022-08-22T23:31:39.949Z,67.10
2022-08-22T23:33:35.395Z,66.60
2022-08-22T23:35:26.710Z,65.70
2022-08-22T23:37:22.223Z,64.80
2022-08-22T23:39:15.361Z,65.30
2022-08-22T23:41:10.003Z,65.30
2022-08-22T23:43:01.994Z,65.30
2022-08-22T23:44:53.209Z,66.40
2022-08-22T23:46:45.775Z,66.40
2022-08-22T23:48:37.356Z,66.20
2022-08-22T23:50:28.508Z,66.20
2022-08-22T23:52:21.797Z,65.40
2022-08-22T23:54:13.918Z,65.00
2022-08-22T23:56:10.693Z,65.10
2022-08-22T23:58:11.491Z,65.20
